Time;durP1;ratioP1;P1;durP2;ratioP2;P2;SDS_P1;SDS_P2;PMS_P1;PMS_P2;Temp;Humidity;BMP_temperature;BMP_pressure;BME280_temperature;BME280_humidity;BME280_pressure;Samples;Min_cycle;Max_cycle;Signal;HPM_P1;HPM_P2
2023/07/19 00:01:34;;;;;;;9.82;5.57;;;19.50;71.50;;;;;;5075395;28;20024;-77
2023/07/19 00:03:59;;;;;;;7.53;5.38;;;19.40;71.90;;;;;;5075084;28;20027;-78
2023/07/19 00:06:25;;;;;;;8.40;5.43;;;19.30;72.10;;;;;;5073597;28;20117;-77
2023/07/19 00:08:50;;;;;;;15.90;6.03;;;19.20;72.20;;;;;;5075169;28;20104;-78
2023/07/19 00:11:16;;;;;;;9.02;6.05;;;19.30;72.00;;;;;;5075166;28;20059;-76
2023/07/19 00:13:41;;;;;;;8.30;5.18;;;19.40;72.20;;;;;;5074670;28;20476;-75
2023/07/19 00:16:07;;;;;;;8.95;5.60;;;19.40;71.60;;;;;;5074845;28;20473;-75
2023/07/19 00:18:33;;;;;;;7.65;5.32;;;19.30;71.50;;;;;;5075043;28;20036;-75
2023/07/19 00:20:58;;;;;;;7.57;5.28;;;19.30;71.80;;;;;;5074687;28;20465;-75
2023/07/19 00:23:24;;;;;;;8.60;5.50;;;19.20;72.00;;;;;;5074992;28;20020;-74
2023/07/19 00:25:49;;;;;;;8.82;5.38;;;19.20;72.00;;;;;;5075051;28;20020;-75
2023/07/19 00:28:15;;;;;;;11.73;6.03;;;19.10;73.10;;;;;;5075171;28;20025;-78
2023/07/19 00:30:41;;;;;;;6.32;5.15;;;19.10;72.10;;;;;;5075147;28;20033;-77
2023/07/19 00:33:07;;;;;;;8.07;5.38;;;19.20;71.90;;;;;;5074831;28;20469;-77
2023/07/19 00:35:32;;;;;;;7.80;5.07;;;19.00;72.10;;;;;;5074860;28;20039;-78
2023/07/19 00:37:58;;;;;;;11.18;6.18;;;19.00;72.40;;;;;;5073430;28;20413;-77
2023/07/19 00:40:23;;;;;;;11.90;5.32;;;19.10;72.30;;;;;;5074692;28;20021;-78
2023/07/19 00:42:56;;;;;;;10.73;5.50;;;19.10;72.00;;;;;;5074771;28;20370;-78
2023/07/19 00:45:22;;;;;;;9.23;5.43;;;19.10;71.70;;;;;;5074810;28;20560;-77
2023/07/19 00:47:48;;;;;;;9.98;5.07;;;19.00;71.80;;;;;;5074556;28;20048;-77
2023/07/19 00:50:13;;;;;;;6.57;5.15;;;19.00;71.70;;;;;;5074327;28;20392;-77
2023/07/19 00:52:40;;;;;;;8.38;5.50;;;19.00;71.70;;;;;;5074309;28;20017;-76
2023/07/19 00:55:06;;;;;;;6.50;5.22;;;19.00;72.40;;;;;;5074390;28;20082;-78
2023/07/19 00:57:32;;;;;;;10.00;5.35;;;19.00;71.50;;;;;;5074166;28;20029;-78
2023/07/19 00:59:59;;;;;;;8.73;5.80;;;18.90;71.30;;;;;;5073983;28;20116;-77
2023/07/19 01:02:25;;;;;;;7.72;5.20;;;18.90;71.20;;;;;;5074218;28;20024;-78
2023/07/19 01:04:51;;;;;;;12.20;5.38;;;18.80;71.50;;;;;;5073970;28;20020;-77
2023/07/19 01:07:17;;;;;;;9.02;5.65;;;18.80;71.40;;;;;;5072803;28;20025;-77
2023/07/19 01:09:43;;;;;;;9.20;5.38;;;18.80;71.20;;;;;;5073985;28;20062;-78
2023/07/19 01:12:08;;;;;;;8.27;5.43;;;18.80;71.10;;;;;;5073869;28;20392;-78
2023/07/19 01:14:34;;;;;;;6.10;4.50;;;18.80;71.00;;;;;;5073750;28;20108;-77
2023/07/19 01:17:00;;;;;;;10.88;5.22;;;18.80;70.90;;;;;;5073765;28;20039;-77
2023/07/19 01:19:26;;;;;;;10.45;5.85;;;18.90;71.00;;;;;;5073971;28;20051;-77
2023/07/19 01:21:54;;;;;;;8.07;5.38;;;18.90;71.00;;;;;;5073461;28;20067;-77
2023/07/19 01:24:20;;;;;;;8.98;5.07;;;18.90;70.90;;;;;;5073107;28;20025;-76
2023/07/19 01:26:46;;;;;;;8.88;5.45;;;19.00;70.60;;;;;;5073645;28;20392;-75
2023/07/19 01:29:12;;;;;;;7.45;4.97;;;18.90;69.80;;;;;;5072471;28;20024;-76
2023/07/19 01:31:37;;;;;;;9.48;5.30;;;18.90;69.80;;;;;;5073628;28;20022;-76
2023/07/19 01:34:03;;;;;;;12.20;5.53;;;18.90;70.10;;;;;;5073504;28;20029;-78
2023/07/19 01:36:28;;;;;;;11.13;5.20;;;18.90;69.60;;;;;;5073227;28;20024;-77
2023/07/19 01:38:54;;;;;;;10.55;5.30;;;18.90;69.40;;;;;;5073497;28;20114;-76
2023/07/19 01:41:20;;;;;;;11.85;5.53;;;19.00;69.20;;;;;;5073351;28;20358;-77
2023/07/19 01:43:49;;;;;;;9.73;5.15;;;18.90;69.40;;;;;;5073497;28;20375;-77
2023/07/19 01:46:14;;;;;;;6.95;4.90;;;19.00;69.10;;;;;;5073382;28;20096;-77
2023/07/19 01:48:40;;;;;;;8.90;5.40;;;18.90;68.90;;;;;;5073288;28;20111;-76
2023/07/19 01:51:05;;;;;;;15.18;5.50;;;19.00;68.80;;;;;;5071774;28;20021;-76
2023/07/19 01:53:31;;;;;;;10.10;5.70;;;18.90;68.70;;;;;;5073261;28;20028;-76
2023/07/19 01:55:57;;;;;;;8.93;5.35;;;18.90;69.00;;;;;;5073353;28;20500;-76
2023/07/19 01:58:22;;;;;;;8.43;5.50;;;18.90;68.80;;;;;;5073239;28;20392;-76
2023/07/19 02:00:48;;;;;;;8.93;5.55;;;18.90;69.10;;;;;;5073280;28;20427;-77
2023/07/19 02:03:14;;;;;;;7.35;4.88;;;18.90;68.60;;;;;;5073324;28;20032;-76
2023/07/19 02:05:39;;;;;;;9.25;5.18;;;18.90;68.40;;;;;;5073088;28;20017;-76
2023/07/19 02:08:05;;;;;;;8.73;5.65;;;18.90;68.30;;;;;;5073035;28;20029;-76
2023/07/19 02:10:30;;;;;;;8.35;5.35;;;19.00;68.00;;;;;;5073079;28;20109;-76
2023/07/19 02:12:56;;;;;;;7.03;4.80;;;19.10;67.80;;;;;;5072986;28;20067;-75
2023/07/19 02:15:22;;;;;;;10.73;5.45;;;19.20;67.40;;;;;;5073104;28;20021;-76
2023/07/19 02:17:47;;;;;;;7.30;4.65;;;19.40;67.00;;;;;;5073141;28;20033;-75
2023/07/19 02:20:14;;;;;;;8.70;4.78;;;19.50;66.60;;;;;;5072764;28;20029;-76
2023/07/19 02:22:39;;;;;;;7.60;4.70;;;19.50;66.40;;;;;;5072931;28;20036;-76
2023/07/19 02:25:05;;;;;;;5.85;4.53;;;19.60;66.30;;;;;;5071615;28;20372;-76
2023/07/19 02:27:31;;;;;;;6.43;4.40;;;19.70;65.90;;;;;;5072938;28;20499;-76
2023/07/19 02:29:57;;;;;;;6.38;4.38;;;19.70;65.50;;;;;;5072652;28;20036;-76
2023/07/19 02:32:22;;;;;;;6.38;4.60;;;19.70;65.60;;;;;;5072853;28;20036;-75
2023/07/19 02:34:48;;;;;;;7.38;4.53;;;19.70;64.90;;;;;;5072629;28;20028;-75
2023/07/19 02:37:13;;;;;;;11.95;4.95;;;19.70;65.00;;;;;;5072593;28;20064;-75
2023/07/19 02:39:39;;;;;;;7.20;4.65;;;19.70;65.30;;;;;;5072905;28;20500;-76
2023/07/19 02:42:05;;;;;;;6.18;4.75;;;19.70;65.00;;;;;;5071426;28;20544;-76
2023/07/19 02:44:30;;;;;;;6.88;4.57;;;19.60;65.60;;;;;;5072792;28;20103;-76
2023/07/19 02:46:56;;;;;;;7.05;4.65;;;19.60;65.80;;;;;;5072707;28;20111;-76
2023/07/19 02:49:23;;;;;;;6.13;4.40;;;19.60;66.20;;;;;;5072661;28;20491;-76
2023/07/19 02:51:48;;;;;;;7.50;4.93;;;19.50;66.60;;;;;;5072703;28;20443;-76
2023/07/19 02:54:14;;;;;;;9.32;4.80;;;19.50;66.90;;;;;;5072638;28;20100;-76
2023/07/19 02:56:40;;;;;;;10.07;5.68;;;19.30;67.60;;;;;;5072840;28;20043;-76
2023/07/19 02:59:05;;;;;;;7.95;5.05;;;19.30;67.80;;;;;;5074488;28;20032;-76
2023/07/19 03:01:31;;;;;;;8.77;5.20;;;19.40;67.80;;;;;;5074457;28;20400;-77
2023/07/19 03:03:57;;;;;;;8.02;5.43;;;19.50;68.30;;;;;;5072720;28;20021;-76
2023/07/19 03:06:23;;;;;;;8.15;5.45;;;19.50;67.50;;;;;;5071448;28;20029;-76
2023/07/19 03:08:48;;;;;;;6.95;4.72;;;19.40;67.60;;;;;;5072531;28;20021;-77
2023/07/19 03:11:14;;;;;;;7.78;4.95;;;19.50;67.80;;;;;;5072759;28;20375;-76
2023/07/19 03:13:40;;;;;;;7.38;5.18;;;19.50;67.80;;;;;;5072567;28;20031;-76
2023/07/19 03:16:05;;;;;;;7.13;4.40;;;19.40;67.50;;;;;;5070934;28;20029;-76
2023/07/19 03:18:31;;;;;;;7.90;4.82;;;19.40;67.40;;;;;;5072351;28;20071;-77
2023/07/19 03:21:00;;;;;;;8.02;4.78;;;19.40;67.60;;;;;;5072180;28;20123;-77
2023/07/19 03:23:27;;;;;;;6.32;4.65;;;19.40;67.60;;;;;;5072309;28;20457;-77
2023/07/19 03:25:57;;;;;;;8.10;5.10;;;19.40;67.50;;;;;;5072286;28;20052;-76
2023/07/19 03:28:25;;;;;;;9.07;5.82;;;19.30;67.70;;;;;;5072275;28;20016;-76
2023/07/19 03:30:54;;;;;;;11.88;5.57;;;19.20;68.00;;;;;;5072409;28;20024;-76
2023/07/19 03:33:22;;;;;;;6.90;4.72;;;19.10;68.50;;;;;;5070968;28;20025;-75
2023/07/19 03:35:48;;;;;;;8.02;5.43;;;19.20;68.40;;;;;;5072254;28;20021;-76
2023/07/19 03:38:14;;;;;;;8.88;5.38;;;19.20;68.30;;;;;;5072073;28;20495;-75
2023/07/19 03:40:40;;;;;;;7.97;5.30;;;19.30;68.30;;;;;;5072206;28;20033;-75
2023/07/19 03:43:06;;;;;;;5.95;4.82;;;19.20;68.20;;;;;;5072028;28;20384;-75
2023/07/19 03:45:31;;;;;;;10.20;5.13;;;19.30;68.40;;;;;;5072073;28;20472;-75
2023/07/19 03:47:57;;;;;;;10.10;5.40;;;19.30;68.30;;;;;;5073853;28;20063;-76
2023/07/19 03:50:24;;;;;;;7.43;5.13;;;19.30;68.30;;;;;;5075667;28;20025;-79
2023/07/19 03:52:50;;;;;;;8.77;5.85;;;19.30;68.30;;;;;;5075344;28;20032;-79
2023/07/19 03:55:15;;;;;;;10.60;6.05;;;19.20;68.40;;;;;;5075444;28;20493;-79
2023/07/19 03:57:41;;;;;;;9.80;5.78;;;19.10;69.20;;;;;;5075411;28;20032;-79
2023/07/19 04:00:08;;;;;;;9.05;5.78;;;19.00;69.70;;;;;;5075355;28;20436;-78
2023/07/19 04:02:34;;;;;;;8.15;5.70;;;18.90;70.20;;;;;;5074017;28;20035;-76
2023/07/19 04:05:00;;;;;;;11.10;5.75;;;19.00;70.50;;;;;;5075136;28;20021;-76
2023/07/19 04:07:26;;;;;;;10.15;5.72;;;19.00;70.20;;;;;;5075215;28;20024;-77
2023/07/19 04:09:51;;;;;;;7.57;5.18;;;19.10;69.90;;;;;;5075352;28;20021;-78
2023/07/19 04:12:17;;;;;;;10.48;5.63;;;19.30;69.30;;;;;;5075336;28;20492;-76
2023/07/19 04:14:43;;;;;;;9.63;5.35;;;19.30;68.80;;;;;;5075141;28;20431;-77
2023/07/19 04:17:10;;;;;;;6.38;5.38;;;19.40;68.90;;;;;;5073757;28;20134;-76
2023/07/19 04:19:36;;;;;;;8.85;5.30;;;19.50;68.80;;;;;;5075137;28;20492;-78
2023/07/19 04:22:01;;;;;;;9.95;5.30;;;19.50;68.80;;;;;;5074876;28;20052;-76
2023/07/19 04:24:27;;;;;;;6.93;4.82;;;19.40;69.50;;;;;;5075286;28;20024;-76
2023/07/19 04:26:52;;;;;;;7.80;4.93;;;19.30;69.00;;;;;;5074992;28;20031;-77
2023/07/19 04:29:19;;;;;;;6.88;5.22;;;19.30;70.10;;;;;;5074833;28;20044;-76
2023/07/19 04:31:45;;;;;;;6.63;5.30;;;19.40;69.50;;;;;;5074742;28;20021;-77
2023/07/19 04:34:11;;;;;;;8.95;5.45;;;19.40;69.20;;;;;;5075149;28;20082;-79
2023/07/19 04:36:36;;;;;;;6.63;4.82;;;19.50;68.90;;;;;;5075327;28;20028;-76
2023/07/19 04:39:02;;;;;;;8.07;5.35;;;19.50;68.90;;;;;;5075256;28;20033;-76
2023/07/19 04:41:28;;;;;;;6.43;5.00;;;19.50;69.00;;;;;;5085718;28;20025;-78
2023/07/19 04:43:53;;;;;;;9.50;5.60;;;19.60;68.80;;;;;;5075289;28;20025;-77
2023/07/19 04:46:20;;;;;;;9.10;5.32;;;19.60;68.90;;;;;;5076118;28;20062;-78
2023/07/19 04:48:45;;;;;;;7.40;5.10;;;19.60;68.90;;;;;;5074799;28;20115;-75
2023/07/19 04:51:11;;;;;;;7.57;5.40;;;19.60;68.90;;;;;;5074565;28;20027;-76
2023/07/19 04:53:37;;;;;;;7.90;4.95;;;19.70;68.90;;;;;;5074618;28;20435;-77
2023/07/19 04:56:02;;;;;;;5.80;4.80;;;19.70;69.00;;;;;;5074468;28;20027;-76
2023/07/19 04:58:28;;;;;;;7.10;5.22;;;19.80;68.80;;;;;;5073435;28;20032;-77
2023/07/19 05:00:53;;;;;;;9.80;5.88;;;19.90;68.50;;;;;;5074242;28;20016;-75
2023/07/19 05:03:19;;;;;;;5.30;4.45;;;20.00;68.30;;;;;;5074283;28;20033;-75
2023/07/19 05:05:47;;;;;;;8.75;5.60;;;20.00;68.30;;;;;;5073833;28;20021;-77
2023/07/19 05:08:13;;;;;;;7.93;5.43;;;20.10;68.30;;;;;;5073883;28;20099;-77
2023/07/19 05:10:40;;;;;;;10.48;5.80;;;20.10;68.30;;;;;;5074112;28;20031;-76
2023/07/19 05:13:05;;;;;;;7.68;4.90;;;20.20;68.30;;;;;;5074142;28;20028;-77
2023/07/19 05:15:32;;;;;;;7.53;5.47;;;20.20;68.00;;;;;;5073694;28;20025;-75
2023/07/19 05:17:57;;;;;;;7.55;4.60;;;20.40;67.70;;;;;;5073892;28;20051;-75
2023/07/19 05:20:23;;;;;;;8.20;5.10;;;20.50;67.60;;;;;;5073851;28;20045;-75
2023/07/19 05:22:49;;;;;;;8.98;5.40;;;20.60;67.20;;;;;;5073985;28;20464;-76
2023/07/19 05:25:15;;;;;;;7.25;5.13;;;20.80;66.70;;;;;;5074047;28;20020;-77
2023/07/19 05:27:40;;;;;;;11.13;5.82;;;20.90;64.60;;;;;;5073957;28;20376;-77
2023/07/19 05:30:07;;;;;;;10.07;5.40;;;21.10;64.90;;;;;;5073687;28;20112;-77
2023/07/19 05:32:33;;;;;;;7.88;5.43;;;21.20;64.30;;;;;;5073888;28;20028;-77
2023/07/19 05:34:59;;;;;;;8.32;5.38;;;21.30;63.40;;;;;;5074607;28;20020;-76
2023/07/19 05:37:24;;;;;;;7.93;5.53;;;21.50;62.90;;;;;;5074125;28;20144;-78
2023/07/19 05:39:50;;;;;;;7.10;5.15;;;21.70;62.60;;;;;;5071757;28;20117;-76
2023/07/19 05:42:16;;;;;;;7.18;5.43;;;21.90;62.40;;;;;;5073454;28;20495;-77
2023/07/19 05:44:41;;;;;;;9.52;5.68;;;22.00;61.70;;;;;;5073757;28;20089;-80
2023/07/19 05:47:07;;;;;;;7.28;5.45;;;22.00;60.90;;;;;;5073556;28;20102;-81
2023/07/19 05:49:33;;;;;;;7.20;5.40;;;22.10;61.00;;;;;;5073847;28;20048;-81
2023/07/19 05:51:59;;;;;;;8.98;6.18;;;22.20;60.90;;;;;;5073639;28;20053;-78
2023/07/19 05:54:24;;;;;;;10.63;5.82;;;22.20;58.70;;;;;;5073554;28;20035;-80
2023/07/19 05:56:50;;;;;;;7.60;4.90;;;22.10;57.40;;;;;;5073384;28;20039;-78
2023/07/19 05:59:15;;;;;;;9.40;4.97;;;21.90;57.50;;;;;;5073856;28;20060;-77
2023/07/19 06:01:41;;;;;;;7.88;5.00;;;22.00;57.40;;;;;;5073385;28;20052;-73
2023/07/19 06:04:07;;;;;;;9.68;5.30;;;22.10;56.80;;;;;;5073117;28;20063;-73
2023/07/19 06:06:33;;;;;;;8.95;4.60;;;22.10;56.40;;;;;;5073121;28;20024;-73
2023/07/19 06:09:01;;;;;;;8.73;4.70;;;22.20;56.30;;;;;;5071703;28;20027;-72
2023/07/19 06:11:27;;;;;;;9.10;5.10;;;22.20;55.30;;;;;;5072519;28;20039;-74
2023/07/19 06:13:53;;;;;;;9.88;5.00;;;22.20;55.40;;;;;;5073111;28;20028;-77
2023/07/19 06:16:19;;;;;;;7.07;5.28;;;22.30;55.70;;;;;;5072826;28;20048;-73
2023/07/19 06:18:44;;;;;;;4.97;4.40;;;22.30;55.10;;;;;;5072908;28;20063;-73
2023/07/19 06:21:10;;;;;;;7.97;4.70;;;22.20;53.70;;;;;;5072717;28;20045;-75
2023/07/19 06:23:35;;;;;;;6.72;4.55;;;22.20;54.70;;;;;;5072655;28;20029;-75
2023/07/19 06:26:01;;;;;;;7.95;4.32;;;22.20;54.60;;;;;;5072513;28;20120;-76
2023/07/19 06:28:28;;;;;;;12.43;4.78;;;22.30;54.30;;;;;;5072690;28;20074;-75
2023/07/19 06:30:53;;;;;;;7.90;4.85;;;22.30;54.80;;;;;;5072795;28;20033;-77
2023/07/19 06:33:19;;;;;;;9.32;4.88;;;22.40;53.60;;;;;;5071497;28;20021;-77
2023/07/19 06:35:44;;;;;;;10.13;4.72;;;22.50;52.30;;;;;;5072885;28;20048;-75
2023/07/19 06:38:10;;;;;;;10.75;4.47;;;22.50;53.50;;;;;;5072525;28;20447;-75
2023/07/19 06:40:36;;;;;;;7.97;4.10;;;22.60;52.70;;;;;;5072674;28;20025;-74
2023/07/19 06:43:01;;;;;;;7.93;3.92;;;22.70;51.40;;;;;;5072643;28;20353;-74
2023/07/19 06:45:27;;;;;;;6.90;4.40;;;22.80;51.60;;;;;;5071446;28;20025;-74
2023/07/19 06:47:53;;;;;;;9.88;3.97;;;22.90;49.90;;;;;;5072660;28;20511;-75
2023/07/19 06:50:19;;;;;;;10.30;4.60;;;22.90;48.70;;;;;;5072652;28;20032;-76
2023/07/19 06:52:44;;;;;;;8.32;4.25;;;22.80;49.20;;;;;;5072586;28;20033;-76
2023/07/19 06:55:10;;;;;;;7.25;4.18;;;22.80;49.50;;;;;;5072497;28;20077;-76
2023/07/19 06:57:35;;;;;;;8.38;4.28;;;22.70;50.30;;;;;;5072250;28;20033;-77
2023/07/19 07:00:03;;;;;;;8.00;3.80;;;22.70;51.00;;;;;;5072294;28;20033;-77
2023/07/19 07:02:28;;;;;;;8.10;3.55;;;22.70;50.10;;;;;;5072540;28;20107;-77
2023/07/19 07:04:54;;;;;;;9.48;3.88;;;22.70;49.10;;;;;;5072498;28;20162;-77
2023/07/19 07:07:20;;;;;;;7.45;3.92;;;22.70;49.30;;;;;;5072219;28;20021;-77
2023/07/19 07:09:46;;;;;;;6.75;4.00;;;22.60;49.00;;;;;;5072433;28;20025;-78
2023/07/19 07:12:12;;;;;;;6.72;3.72;;;22.60;49.80;;;;;;5072429;28;20472;-77
2023/07/19 07:14:38;;;;;;;10.68;3.90;;;22.70;49.10;;;;;;5072672;28;20040;-74
2023/07/19 07:17:05;;;;;;;9.70;3.40;;;22.70;48.60;;;;;;5072603;28;20032;-77
2023/07/19 07:19:31;;;;;;;7.47;4.10;;;22.80;47.90;;;;;;5073135;28;20108;-77
2023/07/19 07:21:57;;;;;;;9.02;3.90;;;22.80;47.80;;;;;;5077053;28;20137;-78
2023/07/19 07:24:23;;;;;;;5.22;3.60;;;22.80;48.10;;;;;;5079069;28;20030;-77
2023/07/19 07:26:50;;;;;;;9.68;3.67;;;22.80;47.70;;;;;;5076593;28;20131;-77
2023/07/19 07:29:15;;;;;;;7.47;3.72;;;22.80;47.70;;;;;;5076254;28;20071;-77
2023/07/19 07:31:41;;;;;;;9.15;3.55;;;22.90;47.10;;;;;;5076202;28;20047;-76
2023/07/19 07:34:07;;;;;;;8.80;3.63;;;22.90;46.60;;;;;;5075941;28;20388;-76
2023/07/19 07:36:33;;;;;;;9.45;3.28;;;23.00;46.20;;;;;;5075722;28;20052;-77
2023/07/19 07:38:58;;;;;;;7.82;3.60;;;23.00;47.00;;;;;;5075024;28;20071;-77
2023/07/19 07:41:24;;;;;;;7.18;3.42;;;23.00;45.60;;;;;;5075480;28;20020;-77
2023/07/19 07:43:50;;;;;;;5.55;3.20;;;23.00;45.40;;;;;;5075315;28;20436;-76
2023/07/19 07:46:15;;;;;;;7.63;3.95;;;23.00;46.40;;;;;;5075460;28;20416;-77
2023/07/19 07:48:41;;;;;;;7.75;3.70;;;23.10;46.80;;;;;;5075562;28;20104;-77
2023/07/19 07:51:07;;;;;;;7.05;3.25;;;23.10;47.10;;;;;;5075575;28;20381;-75
2023/07/19 07:53:32;;;;;;;6.35;3.53;;;23.10;47.30;;;;;;5076188;28;20033;-76
2023/07/19 07:55:58;;;;;;;9.40;3.40;;;23.10;46.90;;;;;;5075558;28;20024;-76
2023/07/19 07:58:24;;;;;;;9.45;3.97;;;23.20;47.40;;;;;;5075733;28;20043;-76
2023/07/19 08:00:49;;;;;;;10.40;3.95;;;23.10;47.20;;;;;;5076053;28;20021;-76
2023/07/19 08:03:15;;;;;;;10.38;4.13;;;23.10;47.30;;;;;;5076508;28;20033;-77
2023/07/19 08:05:41;;;;;;;8.35;3.92;;;23.20;47.40;;;;;;5090620;28;20031;-75
2023/07/19 08:08:07;;;;;;;9.30;4.45;;;23.20;47.20;;;;;;5075107;28;20032;-74
2023/07/19 08:10:38;;;;;;;6.70;3.72;;;23.30;46.70;;;;;;5075191;28;20020;-75
2023/07/19 08:13:04;;;;;;;6.38;3.83;;;23.30;47.40;;;;;;5073900;28;20025;-75
2023/07/19 08:15:29;;;;;;;11.88;3.83;;;23.40;48.20;;;;;;5075063;28;20479;-75
2023/07/19 08:17:55;;;;;;;8.85;4.20;;;23.40;46.20;;;;;;5074672;28;20037;-76
2023/07/19 08:20:21;;;;;;;7.30;3.80;;;23.40;46.60;;;;;;5075453;28;20441;-74
2023/07/19 08:22:47;;;;;;;12.05;4.05;;;23.60;47.00;;;;;;5076360;28;20045;-77
2023/07/19 08:25:16;;;;;;;10.15;3.92;;;23.60;46.60;;;;;;5075589;28;20021;-77
2023/07/19 08:27:42;;;;;;;8.90;3.60;;;23.80;46.10;;;;;;5075977;28;20021;-76
2023/07/19 08:30:15;;;;;;;7.28;3.45;;;23.90;45.30;;;;;;5077173;28;20024;-75
2023/07/19 08:32:45;;;;;;;10.50;4.18;;;24.00;45.40;;;;;;5074757;28;20028;-74
2023/07/19 08:35:10;;;;;;;10.23;3.95;;;24.10;45.00;;;;;;5074354;28;20380;-75
2023/07/19 08:37:36;;;;;;;9.93;4.05;;;24.10;45.60;;;;;;5074845;28;20035;-75
2023/07/19 08:40:02;;;;;;;8.48;3.95;;;24.20;45.00;;;;;;5074536;28;20381;-75
2023/07/19 08:42:28;;;;;;;8.57;4.10;;;24.20;46.20;;;;;;5079778;28;20031;-76
2023/07/19 08:44:54;;;;;;;14.73;4.03;;;24.20;44.90;;;;;;5074895;28;20107;-76
2023/07/19 08:47:20;;;;;;;5.72;3.45;;;24.40;44.30;;;;;;5074545;28;20086;-75
2023/07/19 08:49:48;;;;;;;9.02;3.50;;;24.60;44.20;;;;;;5074533;28;20506;-73
2023/07/19 08:52:13;;;;;;;8.00;3.28;;;24.80;45.20;;;;;;5074325;28;20032;-74
2023/07/19 08:54:39;;;;;;;6.90;3.88;;;24.80;43.90;;;;;;5074245;28;20029;-75
2023/07/19 08:57:05;;;;;;;8.73;3.72;;;24.90;44.40;;;;;;5074410;28;20549;-75
2023/07/19 08:59:31;;;;;;;11.43;4.43;;;24.80;44.60;;;;;;5074746;28;20403;-73
2023/07/19 09:01:57;;;;;;;8.35;4.32;;;24.50;44.60;;;;;;5074466;28;20500;-76
2023/07/19 09:04:22;;;;;;;10.25;3.97;;;24.20;46.30;;;;;;5074471;28;20029;-73
2023/07/19 09:06:48;;;;;;;6.70;4.13;;;24.00;46.10;;;;;;5073902;28;20021;-72
2023/07/19 09:09:16;;;;;;;7.43;4.20;;;24.00;46.70;;;;;;5074092;28;20020;-73
2023/07/19 09:11:49;;;;;;;9.25;4.32;;;24.10;46.80;;;;;;5073990;28;20032;-73
2023/07/19 09:14:15;;;;;;;10.98;4.68;;;24.30;46.90;;;;;;5074040;28;20020;-73
2023/07/19 09:16:40;;;;;;;8.70;4.35;;;24.40;47.00;;;;;;5073717;28;20024;-74
2023/07/19 09:19:08;;;;;;;11.23;4.22;;;24.60;46.30;;;;;;5073290;28;20043;-74
2023/07/19 09:21:42;;;;;;;7.68;3.90;;;24.60;46.00;;;;;;5072837;28;20098;-74
2023/07/19 09:24:09;;;;;;;8.43;4.68;;;24.50;45.90;;;;;;5074070;28;20021;-74
2023/07/19 09:26:51;;;;;;;14.63;4.35;;;24.70;45.90;;;;;;5072928;28;20025;-73
2023/07/19 09:29:20;;;;;;;6.20;4.10;;;24.90;45.60;;;;;;5073159;28;20229;-73
2023/07/19 09:32:06;;;;;;;9.65;4.05;;;25.10;45.10;;;;;;5074467;28;20426;-73
2023/07/19 09:34:36;;;;;;;7.63;4.18;;;25.00;44.10;;;;;;5071992;28;20035;-73
2023/07/19 09:37:02;;;;;;;6.95;3.80;;;25.10;44.20;;;;;;5073255;28;20040;-74
2023/07/19 09:39:29;;;;;;;8.65;4.22;;;25.10;44.60;;;;;;5073516;28;20377;-73
2023/07/19 09:41:57;;;;;;;6.50;4.57;;;25.30;44.60;;;;;;5074019;28;20029;-80
2023/07/19 09:44:23;;;;;;;10.38;4.60;;;25.50;42.50;;;;;;5072537;28;20020;-72
2023/07/19 09:46:49;;;;;;;7.93;3.65;;;25.70;43.10;;;;;;5072655;28;20028;-73
2023/07/19 09:49:14;;;;;;;5.03;3.88;;;25.90;42.60;;;;;;5073179;28;20024;-73
2023/07/19 09:51:42;;;;;;;7.78;4.10;;;26.10;42.80;;;;;;5073085;28;20107;-72
2023/07/19 09:54:16;;;;;;;5.18;3.90;;;26.30;43.10;;;;;;5072907;28;20067;-73
2023/07/19 09:56:43;;;;;;;4.78;3.67;;;26.20;41.60;;;;;;5072957;28;20119;-74
2023/07/19 09:59:22;;;;;;;7.03;3.58;;;26.10;42.00;;;;;;5073237;28;20037;-73
2023/07/19 10:01:49;;;;;;;7.60;4.32;;;26.00;41.80;;;;;;5072873;28;20032;-73
2023/07/19 10:04:25;;;;;;;5.95;4.25;;;26.20;43.60;;;;;;5075712;28;20032;-75
2023/07/19 10:07:11;;;;;;;7.97;4.45;;;26.40;41.70;;;;;;5072885;28;20052;-76
2023/07/19 10:09:42;;;;;;;12.05;4.25;;;26.50;40.90;;;;;;5071698;28;20025;-74
2023/07/19 10:12:15;;;;;;;7.40;4.65;;;26.40;38.80;;;;;;5052935;28;20090;-77
2023/07/19 10:14:51;;;;;;;8.48;4.22;;;26.50;39.50;;;;;;5052656;28;20052;-76
2023/07/19 10:17:16;;;;;;;8.38;4.22;;;26.50;40.30;;;;;;5053060;28;20028;-75
2023/07/19 10:20:21;;;;;;;7.10;3.97;;;26.80;38.50;;;;;;5053119;28;20032;-78
2023/07/19 10:22:52;;;;;;;6.55;4.15;;;27.00;38.00;;;;;;5050624;28;20087;-77
2023/07/19 10:25:29;;;;;;;8.48;4.00;;;27.20;38.00;;;;;;5052416;28;20485;-77
2023/07/19 10:27:59;;;;;;;8.02;3.85;;;27.10;37.50;;;;;;5052695;28;20017;-77
2023/07/19 10:30:43;;;;;;;5.90;4.28;;;26.70;38.20;;;;;;5051439;28;20025;-78
2023/07/19 10:33:10;;;;;;;6.03;4.10;;;26.80;38.80;;;;;;5053354;28;20032;-77
2023/07/19 10:35:36;;;;;;;6.55;3.72;;;26.90;37.40;;;;;;5052694;28;20033;-76
2023/07/19 10:38:02;;;;;;;7.75;4.28;;;27.20;37.00;;;;;;5052302;28;20040;-77
2023/07/19 10:40:27;;;;;;;5.07;3.75;;;27.50;36.10;;;;;;5052458;28;20040;-75
2023/07/19 10:42:53;;;;;;;8.88;3.97;;;27.30;36.80;;;;;;5052202;28;20491;-75
2023/07/19 10:45:18;;;;;;;7.28;3.72;;;27.30;36.20;;;;;;5052270;28;20070;-76
2023/07/19 10:47:44;;;;;;;7.97;4.45;;;27.40;36.80;;;;;;5052142;28;20037;-74
2023/07/19 10:50:10;;;;;;;6.47;3.90;;;27.50;36.90;;;;;;5052238;28;20025;-77
2023/07/19 10:52:35;;;;;;;7.97;4.05;;;27.60;36.70;;;;;;5052027;28;20112;-77
2023/07/19 10:55:01;;;;;;;8.75;4.28;;;27.50;37.10;;;;;;5067658;28;20469;-77
2023/07/19 10:57:27;;;;;;;10.02;4.38;;;27.30;37.90;;;;;;5055079;28;20370;-77
2023/07/19 10:59:53;;;;;;;6.70;4.00;;;27.30;38.10;;;;;;5056572;28;20047;-77
2023/07/19 11:02:19;;;;;;;7.65;4.18;;;27.20;37.70;;;;;;5056614;28;20070;-76
2023/07/19 11:04:48;;;;;;;7.43;3.92;;;27.20;36.80;;;;;;5056039;28;20033;-76
2023/07/19 11:07:14;;;;;;;7.57;3.72;;;27.30;36.90;;;;;;5056246;28;20032;-76
2023/07/19 11:09:49;;;;;;;9.35;3.92;;;27.10;36.50;;;;;;5056527;28;20476;-77
2023/07/19 11:12:15;;;;;;;9.65;4.15;;;27.20;35.60;;;;;;5056630;28;20013;-76
2023/07/19 11:14:45;;;;;;;6.35;3.80;;;27.20;36.00;;;;;;5056311;28;20035;-75
2023/07/19 11:17:26;;;;;;;6.15;3.83;;;27.20;36.90;;;;;;5056377;28;20025;-75
2023/07/19 11:19:53;;;;;;;7.43;4.20;;;27.50;36.20;;;;;;5055971;28;20488;-74
2023/07/19 11:22:23;;;;;;;7.95;4.68;;;27.50;35.20;;;;;;5056256;28;20051;-73
2023/07/19 11:24:50;;;;;;;7.03;3.67;;;27.60;35.50;;;;;;5056259;28;20033;-72
2023/07/19 11:27:19;;;;;;;6.40;4.22;;;27.50;35.80;;;;;;5059683;28;20167;-73
2023/07/19 11:29:49;;;;;;;10.10;3.95;;;27.40;36.10;;;;;;5056021;28;20032;-73
2023/07/19 11:32:20;;;;;;;8.23;4.55;;;27.30;36.00;;;;;;5054773;28;20090;-75
2023/07/19 11:34:46;;;;;;;9.38;4.20;;;26.90;36.70;;;;;;5071086;28;20481;-76
2023/07/19 11:37:27;;;;;;;8.02;3.90;;;26.90;36.70;;;;;;5075793;28;20120;-77
2023/07/19 11:39:57;;;;;;;6.80;4.10;;;27.20;37.10;;;;;;5074026;28;20074;-79
2023/07/19 11:42:46;;;;;;;8.35;4.57;;;27.40;35.70;;;;;;5075243;28;20035;-79
2023/07/19 11:45:13;;;;;;;12.93;4.65;;;27.90;35.80;;;;;;5073368;28;20017;-75
2023/07/19 11:47:40;;;;;;;6.55;3.70;;;28.30;35.10;;;;;;5075269;28;20129;-78
2023/07/19 11:50:06;;;;;;;9.43;4.53;;;28.40;33.80;;;;;;5072600;28;20017;-77
2023/07/19 11:52:43;;;;;;;7.63;3.85;;;28.50;34.70;;;;;;5075182;28;20021;-80
2023/07/19 11:55:11;;;;;;;5.63;4.05;;;28.10;35.10;;;;;;5071637;28;20024;-78
2023/07/19 11:57:37;;;;;;;6.22;3.92;;;28.30;34.70;;;;;;5075169;28;20028;-79
2023/07/19 12:00:04;;;;;;;9.38;3.65;;;28.40;34.40;;;;;;5074952;28;20013;-79
2023/07/19 12:02:30;;;;;;;9.30;3.97;;;28.70;34.00;;;;;;5074938;28;20504;-76
2023/07/19 12:04:56;;;;;;;5.72;3.58;;;28.90;33.30;;;;;;5074899;28;20023;-78
2023/07/19 12:07:21;;;;;;;5.07;4.15;;;29.20;33.80;;;;;;5074565;28;20101;-76
2023/07/19 12:09:47;;;;;;;7.78;3.95;;;29.50;32.50;;;;;;5074377;28;20468;-75
2023/07/19 12:12:13;;;;;;;7.18;3.53;;;29.60;32.60;;;;;;5073743;28;20100;-79
2023/07/19 12:14:40;;;;;;;6.30;3.58;;;29.90;32.20;;;;;;5074800;28;20472;-79
2023/07/19 12:17:06;;;;;;;8.82;4.00;;;29.70;32.10;;;;;;5074643;28;20016;-78
2023/07/19 12:19:33;;;;;;;5.93;3.80;;;29.70;31.30;;;;;;5074664;28;20020;-79
2023/07/19 12:21:59;;;;;;;6.13;3.85;;;29.90;31.70;;;;;;5074388;28;20045;-79
2023/07/19 12:24:25;;;;;;;6.93;3.72;;;30.00;31.50;;;;;;5074576;28;20490;-78
2023/07/19 12:26:50;;;;;;;7.40;3.97;;;29.60;31.30;;;;;;5074441;28;20112;-79
2023/07/19 12:29:16;;;;;;;6.03;4.50;;;29.40;32.70;;;;;;5074608;28;20023;-76
2023/07/19 12:31:41;;;;;;;5.38;3.63;;;29.20;33.90;;;;;;5074232;28;20027;-75
2023/07/19 12:34:07;;;;;;;7.38;3.65;;;29.30;33.50;;;;;;5074381;28;20096;-75
2023/07/19 12:36:32;;;;;;;5.82;4.10;;;28.90;33.60;;;;;;5074307;28;20027;-75
2023/07/19 12:38:58;;;;;;;6.75;3.72;;;28.60;34.60;;;;;;5073913;28;20036;-74
2023/07/19 12:41:25;;;;;;;9.13;4.20;;;28.40;35.30;;;;;;5074061;28;20027;-74
2023/07/19 12:43:50;;;;;;;7.82;4.13;;;28.30;35.90;;;;;;5073911;28;20134;-75